createdAt,value
2019-06-26T00:02:18.065Z,14.90
2019-06-26T00:04:53.168Z,15.00
2019-06-26T00:07:28.371Z,15.00
2019-06-26T00:10:13.244Z,15.00
2019-06-26T00:12:51.703Z,15.00
2019-06-26T00:15:26.744Z,15.00
2019-06-26T00:18:01.560Z,15.10
2019-06-26T00:20:36.633Z,15.20
2019-06-26T00:23:15.579Z,15.20
2019-06-26T00:25:54.300Z,15.30
2019-06-26T00:28:29.289Z,15.50
2019-06-26T00:31:04.781Z,15.60
2019-06-26T00:33:42.588Z,15.70
2019-06-26T00:36:20.539Z,15.70
2019-06-26T00:38:55.238Z,15.80
2019-06-26T00:41:30.401Z,15.80
2019-06-26T00:44:06.618Z,15.90
2019-06-26T00:46:41.799Z,16.00
2019-06-26T00:49:16.707Z,16.00
2019-06-26T00:51:52.572Z,16.00
2019-06-26T00:54:27.412Z,16.00
2019-06-26T00:57:02.410Z,16.00
2019-06-26T00:59:38.036Z,16.00
2019-06-26T01:02:14.331Z,16.00
2019-06-26T01:04:50.693Z,16.10
2019-06-26T01:07:26.314Z,16.10
2019-06-26T01:10:04.604Z,16.10
2019-06-26T01:12:42.595Z,16.20
2019-06-26T01:15:20.876Z,16.30
2019-06-26T01:17:56.612Z,16.40
2019-06-26T01:20:32.319Z,16.40
2019-06-26T01:23:10.458Z,16.50
2019-06-26T01:25:43.824Z,16.50
2019-06-26T01:28:20.125Z,16.60
2019-06-26T01:30:55.073Z,16.80
2019-06-26T01:33:30.330Z,16.90
2019-06-26T01:36:05.335Z,17.00
2019-06-26T01:38:40.274Z,17.00
2019-06-26T01:41:15.327Z,16.90
2019-06-26T01:43:52.375Z,16.90
2019-06-26T01:46:30.054Z,16.90
2019-06-26T01:49:05.124Z,17.00
2019-06-26T01:51:40.939Z,17.00
2019-06-26T01:54:17.642Z,17.00
2019-06-26T01:56:58.587Z,17.00
2019-06-26T01:59:32.861Z,17.00
2019-06-26T02:02:08.006Z,16.90
2019-06-26T02:04:46.876Z,17.00
2019-06-26T02:07:22.043Z,17.00
2019-06-26T02:09:57.625Z,17.00
2019-06-26T02:12:32.499Z,17.00
2019-06-26T02:15:08.901Z,17.10
2019-06-26T02:17:43.760Z,17.20
2019-06-26T02:20:18.956Z,17.30
2019-06-26T02:22:53.772Z,17.30
2019-06-26T02:25:29.483Z,17.40
2019-06-26T02:28:05.737Z,17.60
2019-06-26T02:30:40.702Z,17.70
2019-06-26T02:33:15.648Z,17.70
2019-06-26T02:35:50.572Z,17.80
2019-06-26T02:38:28.174Z,17.80
2019-06-26T02:41:03.130Z,17.90
2019-06-26T02:43:37.976Z,17.80
2019-06-26T02:46:12.860Z,17.80
2019-06-26T02:48:47.873Z,17.80
2019-06-26T02:51:23.017Z,17.80
2019-06-26T02:53:57.846Z,17.80
2019-06-26T02:56:32.585Z,17.80
2019-06-26T02:59:07.776Z,17.80
2019-06-26T03:01:42.474Z,17.70
2019-06-26T03:04:17.403Z,17.80
2019-06-26T03:06:52.610Z,17.80
2019-06-26T03:09:27.253Z,17.80
2019-06-26T03:12:02.579Z,17.60
2019-06-26T03:14:38.412Z,17.40
2019-06-26T03:17:13.219Z,17.30
2019-06-26T03:19:48.123Z,17.30
2019-06-26T03:22:23.038Z,17.40
2019-06-26T03:24:58.010Z,17.60
2019-06-26T03:27:33.298Z,17.50
2019-06-26T03:30:08.749Z,17.30
2019-06-26T03:32:43.812Z,17.00
2019-06-26T03:35:18.692Z,16.80
2019-06-26T03:37:57.890Z,16.70
2019-06-26T03:40:33.218Z,16.60
2019-06-26T03:43:09.679Z,16.50
2019-06-26T03:45:44.410Z,16.50
2019-06-26T03:48:19.697Z,16.50
2019-06-26T03:50:54.591Z,16.50
2019-06-26T03:53:29.990Z,16.50
2019-06-26T03:56:04.807Z,16.70
2019-06-26T03:58:40.387Z,16.80
2019-06-26T04:01:15.248Z,17.00
2019-06-26T04:03:50.427Z,17.00
2019-06-26T04:06:25.335Z,16.90
2019-06-26T04:09:00.483Z,17.00
2019-06-26T04:11:36.329Z,16.80
2019-06-26T04:14:11.937Z,16.70
2019-06-26T04:16:46.878Z,16.70
2019-06-26T04:19:21.939Z,16.70
2019-06-26T04:21:56.882Z,16.60
2019-06-26T04:24:32.987Z,16.60
2019-06-26T04:27:08.019Z,16.50
2019-06-26T04:29:42.996Z,16.40
2019-06-26T04:32:19.298Z,16.40
2019-06-26T04:34:54.642Z,16.30
2019-06-26T04:37:29.844Z,16.30
2019-06-26T04:40:04.777Z,16.30
2019-06-26T04:42:40.155Z,16.30
2019-06-26T04:45:15.138Z,16.30
2019-06-26T04:47:50.783Z,16.30
2019-06-26T04:50:25.731Z,16.20
2019-06-26T04:53:00.986Z,16.30
2019-06-26T04:55:35.828Z,16.30
2019-06-26T04:58:10.927Z,16.30
2019-06-26T05:00:45.670Z,16.30
2019-06-26T05:03:20.818Z,16.40
2019-06-26T05:05:56.124Z,16.50
2019-06-26T05:08:31.883Z,16.50
2019-06-26T05:11:06.816Z,16.50
2019-06-26T05:13:42.580Z,16.50
2019-06-26T05:16:20.221Z,16.50
2019-06-26T05:18:53.815Z,16.50
2019-06-26T05:21:29.308Z,16.40
2019-06-26T05:24:04.874Z,16.30
2019-06-26T05:26:39.732Z,16.20
2019-06-26T05:29:14.961Z,16.10
2019-06-26T05:31:49.583Z,16.10
2019-06-26T05:34:27.253Z,16.00
2019-06-26T05:37:05.688Z,15.90
2019-06-26T05:39:40.643Z,15.90
2019-06-26T05:42:15.785Z,16.00
2019-06-26T05:44:50.709Z,15.90
2019-06-26T05:47:26.554Z,15.90
2019-06-26T05:50:02.726Z,15.90
2019-06-26T05:52:42.510Z,15.80
2019-06-26T05:55:19.416Z,15.70
2019-06-26T05:57:54.356Z,15.70
2019-06-26T06:00:29.489Z,15.60
2019-06-26T06:03:06.154Z,15.60
2019-06-26T06:05:49.905Z,15.50
2019-06-26T06:08:31.086Z,15.50
2019-06-26T06:11:06.403Z,15.40
2019-06-26T06:13:43.187Z,15.40
2019-06-26T06:16:18.148Z,15.40
2019-06-26T06:18:53.072Z,15.30
2019-06-26T06:21:30.861Z,15.30
2019-06-26T06:24:05.977Z,15.20
2019-06-26T06:26:41.840Z,15.20
2019-06-26T06:29:16.612Z,15.20
2019-06-26T06:31:52.000Z,15.10
2019-06-26T06:34:27.756Z,15.10
2019-06-26T06:37:02.838Z,15.10
2019-06-26T06:39:47.884Z,15.10
2019-06-26T06:42:23.935Z,15.00
2019-06-26T06:44:58.629Z,15.00
2019-06-26T06:47:34.889Z,14.90
2019-06-26T06:50:10.117Z,14.90
2019-06-26T06:52:46.871Z,14.80
2019-06-26T06:55:21.622Z,14.80
2019-06-26T06:57:56.682Z,14.80
2019-06-26T07:00:32.568Z,14.80
2019-06-26T07:03:08.316Z,14.70
2019-06-26T07:05:43.153Z,14.70
2019-06-26T07:08:18.341Z,14.70
2019-06-26T07:10:56.016Z,14.70
2019-06-26T07:13:31.157Z,14.70
2019-06-26T07:16:06.106Z,14.60
2019-06-26T07:18:41.844Z,14.70
2019-06-26T07:21:16.590Z,14.70
2019-06-26T07:23:52.084Z,14.80
2019-06-26T07:26:26.749Z,14.90
2019-06-26T07:29:03.405Z,14.90
2019-06-26T07:31:38.553Z,15.00
2019-06-26T07:34:13.720Z,15.00
2019-06-26T07:36:48.568Z,15.00
2019-06-26T07:39:23.929Z,15.10
2019-06-26T07:41:58.531Z,15.10
2019-06-26T07:44:33.789Z,15.10
2019-06-26T07:47:22.331Z,15.00
2019-06-26T07:49:46.339Z,15.00
2019-06-26T07:52:21.850Z,15.10
2019-06-26T07:54:57.328Z,15.10
2019-06-26T07:57:32.117Z,15.10
2019-06-26T08:00:08.401Z,15.10
2019-06-26T08:02:43.298Z,15.10
2019-06-26T08:05:20.529Z,15.00
2019-06-26T08:07:58.638Z,15.00
2019-06-26T08:10:31.706Z,15.00
2019-06-26T08:13:06.600Z,14.90
2019-06-26T08:15:41.538Z,14.90
2019-06-26T08:18:16.392Z,14.90
2019-06-26T08:21:10.846Z,14.90
2019-06-26T08:23:27.550Z,14.80
2019-06-26T08:26:06.812Z,14.70
2019-06-26T08:28:46.312Z,14.70
2019-06-26T08:31:21.243Z,14.60
2019-06-26T08:33:56.988Z,14.60
2019-06-26T08:36:33.020Z,14.60
2019-06-26T08:39:08.758Z,14.60
2019-06-26T08:41:45.512Z,14.50
2019-06-26T08:44:21.240Z,14.50
2019-06-26T08:46:56.528Z,14.50
2019-06-26T08:49:34.712Z,14.40
2019-06-26T08:52:10.456Z,14.40
2019-06-26T08:54:48.503Z,14.40
2019-06-26T08:57:24.370Z,14.40
2019-06-26T08:59:59.340Z,14.30
2019-06-26T09:02:34.779Z,14.30
2019-06-26T09:05:10.361Z,14.30
2019-06-26T09:07:45.343Z,14.30
2019-06-26T09:10:21.144Z,14.30
2019-06-26T09:12:56.014Z,14.20
2019-06-26T09:15:31.308Z,14.20
2019-06-26T09:18:10.551Z,14.10
2019-06-26T09:20:45.950Z,14.10
2019-06-26T09:23:20.912Z,14.00
2019-06-26T09:25:56.137Z,14.00
2019-06-26T09:28:31.872Z,14.00
2019-06-26T09:31:07.116Z,14.00
2019-06-26T09:33:42.044Z,14.00
2019-06-26T09:36:17.240Z,14.00
2019-06-26T09:38:51.989Z,14.00
2019-06-26T09:41:32.429Z,14.00
2019-06-26T09:44:08.517Z,14.00
2019-06-26T09:46:44.348Z,14.00
2019-06-26T09:49:21.183Z,14.00
2019-06-26T09:51:56.376Z,14.00
2019-06-26T09:54:31.785Z,14.00
2019-06-26T09:57:06.890Z,13.90
2019-06-26T09:59:45.739Z,13.90
2019-06-26T10:02:21.243Z,13.80
2019-06-26T10:04:56.374Z,13.80
2019-06-26T10:07:32.489Z,13.80
2019-06-26T10:10:10.327Z,13.70
2019-06-26T10:12:48.084Z,13.70
2019-06-26T10:15:23.002Z,13.70
2019-06-26T10:17:58.389Z,13.60
2019-06-26T10:20:33.322Z,13.60
2019-06-26T10:23:09.407Z,13.60
2019-06-26T10:25:44.484Z,13.60
2019-06-26T10:28:20.228Z,13.60
2019-06-26T10:30:55.069Z,13.60
2019-06-26T10:33:30.325Z,13.60
2019-06-26T10:36:05.551Z,13.70
2019-06-26T10:38:41.869Z,13.70
2019-06-26T10:41:16.906Z,13.70
2019-06-26T10:43:52.294Z,13.70
2019-06-26T10:46:28.235Z,13.70
2019-06-26T10:49:03.815Z,13.70
2019-06-26T10:51:39.219Z,13.70
2019-06-26T10:54:17.123Z,13.70
2019-06-26T10:56:53.516Z,13.60
2019-06-26T10:59:31.074Z,13.60
2019-06-26T11:02:08.425Z,13.50
2019-06-26T11:04:42.393Z,13.50
2019-06-26T11:07:17.883Z,13.50
2019-06-26T11:09:53.964Z,13.40
2019-06-26T11:12:29.747Z,13.40
2019-06-26T11:15:05.443Z,13.40
2019-06-26T11:17:40.805Z,13.30
2019-06-26T11:20:16.962Z,13.30
2019-06-26T11:22:52.541Z,13.30
2019-06-26T11:25:28.565Z,13.20
2019-06-26T11:28:03.975Z,13.20
2019-06-26T11:30:59.068Z,13.10
2019-06-26T11:33:40.544Z,13.00
2019-06-26T11:36:18.953Z,13.00
2019-06-26T11:39:08.275Z,13.00
2019-06-26T11:41:43.867Z,13.00
2019-06-26T11:44:18.796Z,12.90
2019-06-26T11:46:53.979Z,12.90
2019-06-26T11:49:31.879Z,12.90
2019-06-26T11:52:06.382Z,12.90
2019-06-26T11:54:41.392Z,12.90
2019-06-26T12:00:18.203Z,12.80
2019-06-26T12:02:55.186Z,12.70
2019-06-26T12:05:31.137Z,12.80
2019-06-26T12:08:06.671Z,12.80
2019-06-26T12:10:43.156Z,12.70
2019-06-26T12:13:18.519Z,12.70
2019-06-26T12:15:54.644Z,12.60
2019-06-26T12:18:29.957Z,12.70
2019-06-26T12:21:05.392Z,12.70
2019-06-26T12:23:40.661Z,12.70
2019-06-26T12:29:09.184Z,12.60
2019-06-26T12:35:07.124Z,12.60
2019-06-26T12:37:42.401Z,12.50
2019-06-26T12:40:19.022Z,12.50
2019-06-26T12:42:55.691Z,12.40
2019-06-26T12:45:31.525Z,12.40
2019-06-26T12:48:07.078Z,12.30
2019-06-26T12:50:42.749Z,12.40
2019-06-26T12:53:17.684Z,12.40
2019-06-26T12:55:53.132Z,12.40
2019-06-26T12:58:28.103Z,12.40
2019-06-26T13:01:02.896Z,12.30
2019-06-26T13:03:37.723Z,12.30
2019-06-26T13:06:13.733Z,12.30
2019-06-26T13:08:48.855Z,12.30
2019-06-26T13:11:23.792Z,12.30
2019-06-26T13:14:02.455Z,12.30
2019-06-26T13:16:34.902Z,12.30
2019-06-26T13:19:10.262Z,12.20
2019-06-26T13:21:46.714Z,12.30
2019-06-26T13:24:21.632Z,12.30
2019-06-26T13:26:56.338Z,12.30
2019-06-26T13:29:31.169Z,12.30
2019-06-26T13:32:06.866Z,12.30
2019-06-26T13:34:41.928Z,12.30
2019-06-26T13:37:21.161Z,12.30
2019-06-26T13:39:56.233Z,12.30
2019-06-26T13:42:31.510Z,12.30
2019-06-26T13:45:19.544Z,12.30
2019-06-26T13:48:13.315Z,12.20
2019-06-26T13:50:48.800Z,12.10
2019-06-26T13:53:24.353Z,12.00
2019-06-26T13:55:59.883Z,11.90
2019-06-26T13:58:34.716Z,12.00
2019-06-26T14:01:10.856Z,11.90
2019-06-26T14:03:45.729Z,12.00
2019-06-26T14:06:21.537Z,11.90
2019-06-26T14:08:56.817Z,11.90
2019-06-26T14:11:32.066Z,11.80
2019-06-26T14:14:07.141Z,11.80
2019-06-26T14:16:42.620Z,11.70
2019-06-26T14:19:18.611Z,11.80
2019-06-26T14:21:54.076Z,11.80
2019-06-26T14:24:29.063Z,11.70
2019-06-26T14:27:03.933Z,11.70
2019-06-26T14:29:39.125Z,11.60
2019-06-26T14:32:14.349Z,11.70
2019-06-26T14:34:52.527Z,11.70
2019-06-26T14:37:28.691Z,11.70
2019-06-26T14:40:04.147Z,11.70
2019-06-26T14:42:38.766Z,11.70
2019-06-26T14:45:14.622Z,11.70
2019-06-26T14:47:50.245Z,11.70
2019-06-26T14:50:25.975Z,11.50
2019-06-26T14:53:01.087Z,11.60
2019-06-26T14:55:36.895Z,11.60
2019-06-26T14:58:11.822Z,11.60
2019-06-26T15:00:47.157Z,11.60
2019-06-26T15:03:22.116Z,11.60
2019-06-26T15:05:57.595Z,11.60
2019-06-26T15:08:33.237Z,11.60
2019-06-26T15:11:08.244Z,11.60
2019-06-26T15:13:43.419Z,11.60
2019-06-26T15:16:18.743Z,11.60
2019-06-26T15:18:53.655Z,11.60
2019-06-26T15:21:28.784Z,11.50
2019-06-26T15:24:08.609Z,11.40
2019-06-26T15:26:43.925Z,11.40
2019-06-26T15:29:18.619Z,11.40
2019-06-26T15:31:53.860Z,11.50
2019-06-26T15:34:29.293Z,11.50
2019-06-26T15:37:04.430Z,11.60
2019-06-26T15:39:40.255Z,11.60
2019-06-26T15:42:15.220Z,11.60
2019-06-26T15:44:50.246Z,11.70
2019-06-26T15:47:24.976Z,11.70
2019-06-26T15:50:00.609Z,11.70
2019-06-26T15:52:35.582Z,11.70
2019-06-26T15:55:13.921Z,11.70
2019-06-26T15:57:48.667Z,11.70
2019-06-26T16:00:23.928Z,11.80
2019-06-26T16:02:58.768Z,11.80
2019-06-26T16:05:34.194Z,11.90
2019-06-26T16:08:09.063Z,11.90
2019-06-26T16:10:44.522Z,12.00
2019-06-26T16:13:19.515Z,12.00
2019-06-26T16:15:54.548Z,12.00
2019-06-26T16:18:33.529Z,12.00
2019-06-26T16:21:08.818Z,12.00
2019-06-26T16:23:43.679Z,12.10
2019-06-26T16:26:18.593Z,12.00
2019-06-26T16:28:53.438Z,12.00
2019-06-26T16:31:28.860Z,12.00
2019-06-26T16:34:04.018Z,12.10
2019-06-26T16:36:38.967Z,12.00
2019-06-26T16:39:14.240Z,12.10
2019-06-26T16:41:49.185Z,12.10
2019-06-26T16:44:24.866Z,12.10
2019-06-26T16:46:59.652Z,12.10
2019-06-26T16:49:34.723Z,12.10
2019-06-26T16:52:10.066Z,12.10
2019-06-26T16:54:45.371Z,12.00
2019-06-26T16:57:20.550Z,12.00
2019-06-26T17:00:08.387Z,11.90
2019-06-26T17:02:31.643Z,11.80
2019-06-26T17:05:06.617Z,11.80
2019-06-26T17:07:41.548Z,11.80
2019-06-26T17:10:16.833Z,11.80
2019-06-26T17:12:52.312Z,11.60
2019-06-26T17:15:27.154Z,11.60
2019-06-26T17:18:02.471Z,11.70
2019-06-26T17:20:43.351Z,11.70
2019-06-26T17:23:21.388Z,11.70
2019-06-26T17:25:56.364Z,11.70
2019-06-26T17:28:31.374Z,11.80
2019-06-26T17:31:06.470Z,11.80
2019-06-26T17:33:42.320Z,11.80
2019-06-26T17:36:17.269Z,11.70
2019-06-26T17:38:52.201Z,11.70
2019-06-26T17:41:27.059Z,11.80
2019-06-26T17:44:02.512Z,11.80
2019-06-26T17:46:38.052Z,11.80
2019-06-26T17:49:13.510Z,11.80
2019-06-26T17:51:48.264Z,11.80
2019-06-26T17:54:23.348Z,11.80
2019-06-26T17:56:58.293Z,11.80
2019-06-26T17:59:33.785Z,11.80
2019-06-26T18:02:08.469Z,11.80
2019-06-26T18:04:44.145Z,11.80
2019-06-26T18:07:19.121Z,11.90
2019-06-26T18:09:53.987Z,11.80
2019-06-26T18:12:29.070Z,11.80
2019-06-26T18:15:11.185Z,11.80
2019-06-26T18:17:46.270Z,11.80
2019-06-26T18:20:21.266Z,11.80
2019-06-26T18:23:07.261Z,11.80
2019-06-26T18:25:33.498Z,11.70
2019-06-26T18:28:08.963Z,11.80
2019-06-26T18:30:43.807Z,11.80
2019-06-26T18:33:19.457Z,11.70
2019-06-26T18:35:54.893Z,11.70
2019-06-26T18:38:30.216Z,11.70
2019-06-26T18:41:05.043Z,11.70
2019-06-26T18:43:39.754Z,11.60
2019-06-26T18:46:14.886Z,11.50
2019-06-26T18:48:50.060Z,11.60
2019-06-26T18:51:25.022Z,11.70
2019-06-26T18:54:01.110Z,11.60
2019-06-26T18:56:36.603Z,11.60
2019-06-26T18:59:11.910Z,11.60
2019-06-26T19:01:47.292Z,11.70
2019-06-26T19:04:22.211Z,11.70
2019-06-26T19:06:57.565Z,11.70
2019-06-26T19:09:32.407Z,11.80
2019-06-26T19:12:07.407Z,11.70
2019-06-26T19:14:45.839Z,11.80
2019-06-26T19:17:18.318Z,11.70
2019-06-26T19:19:53.867Z,11.70
2019-06-26T19:22:28.739Z,11.80
2019-06-26T19:25:04.123Z,11.90
2019-06-26T19:27:40.276Z,11.90
2019-06-26T19:30:17.117Z,11.80
2019-06-26T19:32:51.911Z,11.80
2019-06-26T19:35:27.651Z,11.90
2019-06-26T19:38:02.843Z,11.80
2019-06-26T19:40:37.775Z,11.80
2019-06-26T19:43:14.184Z,11.70
2019-06-26T19:45:49.168Z,11.70
2019-06-26T19:48:24.512Z,11.70
2019-06-26T19:50:59.439Z,11.70
2019-06-26T19:53:34.838Z,11.70
2019-06-26T19:56:09.752Z,11.70
2019-06-26T19:58:46.243Z,11.70
2019-06-26T20:01:21.060Z,11.70
2019-06-26T20:03:56.513Z,11.70
2019-06-26T20:06:31.615Z,11.70
2019-06-26T20:09:08.623Z,11.60
2019-06-26T20:11:43.493Z,11.60
2019-06-26T20:14:18.794Z,11.60
2019-06-26T20:16:53.749Z,11.60
2019-06-26T20:19:28.734Z,11.60
2019-06-26T20:22:03.682Z,11.50
2019-06-26T20:24:43.969Z,11.50
2019-06-26T20:27:15.160Z,11.40
2019-06-26T20:29:50.129Z,11.40
2019-06-26T20:32:26.673Z,11.30
2019-06-26T20:35:02.152Z,11.30
2019-06-26T20:37:38.225Z,11.20
2019-06-26T20:40:13.528Z,11.20
2019-06-26T20:42:50.854Z,11.10
2019-06-26T20:45:26.206Z,11.10
2019-06-26T20:48:00.752Z,11.10
2019-06-26T20:50:35.849Z,11.10
2019-06-26T20:53:10.688Z,11.00
2019-06-26T20:55:45.848Z,11.10
2019-06-26T20:58:20.658Z,11.00
2019-06-26T21:00:55.572Z,11.00
2019-06-26T21:03:30.216Z,11.00
2019-06-26T21:06:06.270Z,11.00
2019-06-26T21:08:41.536Z,11.00
2019-06-26T21:11:16.810Z,11.00
2019-06-26T21:13:52.410Z,10.90
2019-06-26T21:16:28.152Z,11.00
2019-06-26T21:19:03.590Z,10.90
2019-06-26T21:21:38.683Z,10.90
2019-06-26T21:24:14.191Z,11.00
2019-06-26T21:26:57.111Z,11.00
2019-06-26T21:29:33.310Z,10.90
2019-06-26T21:32:08.526Z,11.00
2019-06-26T21:34:43.863Z,11.00
2019-06-26T21:37:19.673Z,11.10
2019-06-26T21:39:54.508Z,11.10
2019-06-26T21:42:29.508Z,11.10
2019-06-26T21:45:05.624Z,11.10
2019-06-26T21:47:44.975Z,11.10
2019-06-26T21:50:20.089Z,11.10
2019-06-26T21:52:57.154Z,11.20
2019-06-26T21:55:34.931Z,11.20
2019-06-26T21:58:27.578Z,11.30
2019-06-26T22:01:19.882Z,11.30
2019-06-26T22:04:12.537Z,11.30
2019-06-26T22:06:48.615Z,11.40
2019-06-26T22:09:28.452Z,11.40
2019-06-26T22:12:04.676Z,11.50
2019-06-26T22:14:40.211Z,11.50
2019-06-26T22:17:15.136Z,11.60
2019-06-26T22:19:51.962Z,11.70
2019-06-26T22:22:27.088Z,11.70
2019-06-26T22:25:02.232Z,11.70
2019-06-26T22:27:44.766Z,11.80
2019-06-26T22:30:23.215Z,12.00
2019-06-26T22:32:59.744Z,12.00
2019-06-26T22:35:34.698Z,12.10
2019-06-26T22:38:09.739Z,12.10
2019-06-26T22:40:44.625Z,12.10
2019-06-26T22:43:19.802Z,12.20
2019-06-26T22:45:55.122Z,12.20
2019-06-26T22:48:30.505Z,12.30
2019-06-26T22:51:05.514Z,12.30
2019-06-26T22:53:41.369Z,12.40
2019-06-26T22:56:16.287Z,12.40
2019-06-26T22:58:51.579Z,12.40
2019-06-26T23:01:32.539Z,12.50
2019-06-26T23:04:06.820Z,12.60
2019-06-26T23:06:47.384Z,12.70
2019-06-26T23:09:27.348Z,12.70
2019-06-26T23:12:03.360Z,12.80
2019-06-26T23:14:38.215Z,12.90
2019-06-26T23:17:20.078Z,13.00
2019-06-26T23:19:55.899Z,13.10
2019-06-26T23:22:31.744Z,13.20
2019-06-26T23:25:07.429Z,13.20
2019-06-26T23:27:42.708Z,13.40
2019-06-26T23:30:23.371Z,13.40
2019-06-26T23:33:00.481Z,13.50
2019-06-26T23:35:35.455Z,13.60
2019-06-26T23:38:12.100Z,13.70
2019-06-26T23:40:52.349Z,13.80
2019-06-26T23:43:30.654Z,13.90
2019-06-26T23:46:06.753Z,14.00
2019-06-26T23:48:44.732Z,14.00
2019-06-26T23:51:17.729Z,14.10
2019-06-26T23:53:52.961Z,14.20
2019-06-26T23:56:40.056Z,14.20
2019-06-26T23:59:05.423Z,14.30
